Mesquite, Nevada Weather observations

Data are for observation ending at time listed.
 Day   Time    Ave.   Ave.  Ave.  Vector   Max.   Stn.    Total    Solar   Ave.  
  of    of     Air    Rel.  Wind   Wind    Wind   Baro.  Precip.   Rad.    Soil  
Year   Day     Temp.  Hum.  Speed  Dir.    Gust   Pres.                    Temp. 
2016   (PST)    F      %     mph   deg.    mph     mb.     in.     W/m2     F   
------------------------------------------------------------------------------
 239    0:50   82.0    32    8.9     7     15.3   947.3    0.00       0    92.7
 239    1:00   82.1    32    8.7     9     15.9   947.3    0.00       1    92.6
 239    1:10   81.9    32    8.8     4     16.4   947.3    0.00       1    92.4
 239    1:20   81.4    33    7.8     6     14.2   947.3    0.00       0    92.3
 239    1:30   81.4    33    7.7     6     15.5   947.5    0.00       0    92.2
 239    1:40   81.1    33    5.0    18     10.1   947.6    0.00       1    92.0
 239    1:50   80.8    34    4.8     5      9.3   947.7    0.00       1    91.9
 239    2:00   80.4    34    6.3    13     12.1   947.7    0.00       1    91.8
 239    2:10   80.4    34    5.9    11     10.7   947.8    0.00       1    91.7
 239    2:20   80.3    35    6.9    14     11.8   947.8    0.00       1    91.6
 239    2:30   79.9    35    7.9     6     13.2   947.8    0.00       1    91.5
 239    2:40   80.1    35    7.2     5     12.9   947.9    0.00       1    91.3
 239    2:50   80.1    35    4.0    10     10.0   948.1    0.00       1    91.2
 239    3:00   79.8    36    2.8   339      6.4   948.2    0.00       1    91.1
 239    3:10   79.7    35    4.8     4     11.4   948.3    0.00       1    91.0
 239    3:20   79.4    36    4.6    12      8.6   948.3    0.00       1    90.8
 239    3:30   79.1    37    5.1     6      9.1   948.3    0.00       1    90.7
 239    3:40   78.9    37    3.9    18      9.2   948.4    0.00       1    90.6
 239    3:50   78.6    38    1.9    32      7.0   948.4    0.00       1    90.5
 239    4:00   78.5    38    3.2    30      8.8   948.5    0.00       1    90.4
 239    4:10   78.2    39    4.4    31      7.4   948.5    0.00       1    90.3
 239    4:20   78.3    38    5.3    12      9.8   948.6    0.00       1    90.2
 239    4:30   78.1    39    5.2    61      8.6   948.7    0.00       1    90.1
 239    4:40   78.2    38    5.1    25      8.6   948.9    0.00       0    90.0
 239    4:50   78.2    39    5.6    32      8.9   949.0    0.00       1    89.9
 239    5:00   77.6    40    4.9    17      7.6   949.1    0.00       3    89.8
 239    5:10   77.9    39    6.8     4     10.6   949.2    0.00       3    89.7
 239    5:20   77.9    39    6.1    11     10.0   949.3    0.00       6    89.6
 239    5:30   78.0    39    7.0     9     11.7   949.4    0.00      12    89.5
 239    5:40   78.2    39    4.9    20      9.4   949.5    0.00      27    89.3
 239    5:50   78.8    38    4.9    38      9.3   949.6    0.00      47    89.2
 239    6:00   79.6    37    4.0    32      7.5   949.7    0.00      66    89.1
 239    6:10   80.1    36    4.6    27      9.1   949.8    0.00      87    89.0
 239    6:20   80.4    36    7.2    33     11.0   949.9    0.00     109    88.9
 239    6:30   81.1    35    5.9    38      9.2   950.1    0.00     134    88.9
 239    6:40   81.7    34    6.8    46     10.8   950.2    0.00     154    88.8
 239    6:50   82.3    34    6.3    41     10.7   950.3    0.00     171    88.8
 239    7:00   82.6    33    8.7    41     12.6   950.4    0.00     202    88.7
 239    7:10   83.2    32    8.8    38     14.5   950.4    0.00     227    88.7
 239    7:20   83.5    32    9.9    31     14.2   950.4    0.00     252    88.6
 239    7:30   83.8    32    9.7    33     14.1   950.4    0.00     278    88.6
 239    7:40   84.5    31    8.8    31     13.8   950.4    0.00     301    88.7
 239    7:50   85.6    30    8.2    32     13.5   950.4    0.00     325    88.8
 239    8:00   86.1    29    7.7    36     12.4   950.4    0.00     347    88.8
 239    8:10   87.1    28    7.1    33     12.2   950.4    0.00     370    88.9
 239    8:20   87.1    28    7.2    37     11.2   950.4    0.00     393    88.9
 239    8:30   87.9    27    5.5    29     10.0   950.4    0.00     415    89.0
 239    8:40   88.3    27    4.9     2     10.6   950.5    0.00     436    89.3
 239    8:50   88.6    27    4.5     0      8.7   950.5    0.00     458    89.5
 239    9:00   89.2    26    2.7   352      7.3   950.4    0.00     475    89.8
 239    9:10   90.3    25    2.6   341      8.6   950.3    0.00     495    90.1
 239    9:20   88.8    26    3.5   280      5.8   950.3    0.00     518    90.5
 239    9:30   89.7    26    3.4   334      6.3   950.4    0.00     537    90.9
 239    9:40   89.8    26    2.1   287      6.4   950.4    0.00     552    91.2
 239    9:50   92.0    24    1.9   254      5.0   950.3    0.00     570    91.7
 239   10:00   91.2    25    3.4   252      6.1   950.3    0.00     554    92.1
 239   10:10   92.6    24    2.3   219      4.3   950.2    0.00     613    92.6
 239   10:20   93.0    23    4.4   337      8.6   950.1    0.00     625    93.1
 239   10:30   92.8    23    3.8   353      6.6   950.1    0.00     645    93.5
 239   10:40   92.2    24    4.1   291      6.4   949.9    0.00     652    94.0
 239   10:50   91.8    24    3.8   248      6.6   949.8    0.00     445    94.6
 239   11:00   91.7    24    2.5   268      6.2   949.7    0.00     494    95.0
 239   11:10   92.2    24    2.9   247      7.1   949.5    0.00     594    95.5
 239   11:20   93.2    22    3.3   201      9.0   949.5    0.00     673    95.9
 239   11:30   95.1    21    2.0   224      6.0   949.3    0.00     675    96.3
 239   11:40   95.0    22    3.0   193      8.2   949.2    0.00     654    96.8
 239   11:50   94.7    22    3.3   276      8.3   949.0    0.00     394    97.2
 239   12:00   92.0    23    3.8   240      9.6   948.9    0.00     397    97.6
 239   12:10   93.5    22    2.5   165      6.7   948.8    0.00     475    98.0
 239   12:20   94.2    22    3.3   225      8.4   948.7    0.00     451    98.4
 239   12:30   93.5    22    3.4   264     10.2   948.6    0.00     441    98.7
 239   12:40   95.0    21    2.6   252      8.6   948.4    0.00     713    98.9
 239   12:50   96.6    20    3.7   186      8.8   948.2    0.00     676    99.1
 239   13:00   95.4    21    7.7   126     11.8   948.1    0.00     455    99.4
 239   13:10   94.6    22    6.9    94      9.3   947.8    0.00     614    99.7
 239   13:20   95.5    20    7.0   121     10.2   947.5    0.00     391    100.0
 239   13:30   94.5    21    6.0   134     11.3   947.3    0.00     219    100.3
 239   13:40   94.6    21    2.4   301      6.6   947.0    0.00     362    100.6
 239   13:50   94.2    21    4.7   332      8.3   946.9    0.00     108    100.7
 239   14:00   94.2    21    2.7   318      7.6   946.7    0.00     152    100.8
 239   14:10   94.5    20    2.9   137      8.0   946.5    0.00     197    100.8
 239   14:20   96.3    20    7.7   110     10.4   946.4    0.00     594    100.8
 239   14:30   96.8    19    6.4   102     11.2   946.3    0.00     541    100.7
 239   14:40   96.7    19    3.6   129      6.9   946.3    0.00     424    100.7
 239   14:50   97.8    17    2.7   142      9.3   946.2    0.00     531    100.8
 239   15:00   98.7    13    5.5   200     16.0   946.1    0.00     474    101.0
 239   15:10   98.5    13    6.7   188     15.1   946.0    0.00     417    101.1
 239   15:20   98.0    13    6.0   223     11.4   946.0    0.00     296    101.3
 239   15:30   98.1    14    6.0   217     14.2   945.8    0.00     407    101.5
 239   15:40   98.9    14    6.7   240     13.8   945.7    0.00     414    101.6
 239   15:50   97.9    14    7.5   256     13.2   945.5    0.00     370    101.7
 239   16:00   97.8    14    8.7   251     16.7   945.5    0.00     336    101.8
 239   16:10   97.5    14    7.8   263     14.1   945.5    0.00     306    101.8
 239   16:20   97.8    14    7.9   255     15.2   945.5    0.00     287    101.9
 239   16:30   97.6    14    7.0   249     12.9   945.5    0.00     271    101.9
 239   16:40   97.8    14    6.6   254     12.8   945.5    0.00     239    101.9
 239   16:50   97.6    14    5.6   242     13.3   945.5    0.00     196    101.9
 239   17:00   97.8    14    4.7   232      9.9   945.4    0.00     150    101.8
 239   17:10   97.4    15    5.3   238     14.1   945.3    0.00      93    101.7
 239   17:20   95.8    15    6.1   236     12.1   945.2    0.00      62    101.6
 239   17:30   94.9    15    5.7   241     12.9   945.1    0.00      24    101.5
 239   17:40   94.6    15    4.8   247      8.9   945.2    0.00      17    101.3
 239   17:50   94.4    15    5.1   237      8.6   945.3    0.00      14    101.1
 239   18:00   94.1    15    4.4   228     10.1   945.4    0.00      10    100.9
 239   18:10   93.5    16    3.5   216      9.2   945.5    0.00       8    100.7
 239   18:20   92.8    16    3.4   217      8.0   945.5    0.00       6    100.3
 239   18:30   92.5    17    3.8   200     13.0   945.6    0.00       3    100.1
 239   18:40   91.9    20    3.8   212     11.2   945.7    0.00       2    99.8
 239   18:50   91.4    22    4.3   208     11.8   945.9    0.00       1    99.6
 239   19:00   91.4    21    3.8   206      9.7   946.0    0.00       1    99.3
 239   19:10   91.3    21    3.1   205      9.6   946.2    0.00       1    99.1
 239   19:20   91.3    22    2.5   212      6.9   946.2    0.00       1    98.9
 239   19:30   90.9    23    1.5   209      6.1   946.4    0.00       1    98.7
 239   19:40   90.7    23    2.2   212      7.6   946.6    0.00       1    98.4
 239   19:50   90.5    23    2.0   194      7.8   946.7    0.00       1    98.3
 239   20:00   89.3    25    2.3    84      3.7   946.9    0.00       1    98.1
 239   20:10   88.4    25    4.0   131     10.4   947.1    0.00       1    97.9
 239   20:20   88.8    24    7.8   137     12.0   947.1    0.00       1    97.7
 239   20:30   88.6    24    7.6   144     12.9   947.2    0.00       1    97.5
 239   20:40   88.5    24   10.1   144     14.9   947.2    0.00       1    97.3
 239   20:50   88.1    25    9.6   145     14.7   947.2    0.00       1    97.2
 239   21:00   87.6    25    9.1   141     14.7   947.3    0.00       1    97.0
 239   21:10   87.2    25    8.9   140     14.0   947.3    0.00       1    96.8
 239   21:20   87.1    26    7.0   139     12.0   947.4    0.00       1    96.7
 239   21:30   87.0    26    7.8   134     14.9   947.4    0.00       1    96.4
 239   21:40   87.3    26    8.9   134     12.9   947.5    0.00       1    96.3
 239   21:50   87.3    26    7.7   129     15.6   947.7    0.00       1    96.1
 239   22:00   87.3    26    5.8   130      9.7   947.7    0.00       1    96.0
 239   22:10   86.8    26    5.2   133      9.5   947.7    0.00       1    95.8
 239   22:20   86.5    27    5.0   128     11.0   947.6    0.00       2    95.7
 239   22:30   86.5    27    6.1   121     13.9   947.6    0.00       1    95.5
 239   22:40   86.2    27    8.3   128     13.3   947.7    0.00       1    95.4
 239   22:50   86.3    28    7.0   128     11.2   947.9    0.00       1    95.3
 239   23:00   86.2    28    2.6    90      7.2   948.2    0.00       1    95.1
 239   23:10   85.9    28   11.2    10     18.6   948.5    0.00       1    95.0
 239   23:20   85.8    26   13.0    15     22.5   948.9    0.00       1    94.8
 239   23:30   84.9    27   14.6    18     26.8   949.0    0.00       1    94.7
 239   23:40   82.6    31   20.4    31     35.0   949.2    0.00       0    94.6
 239   23:50   81.0    32   20.1    34     33.8   949.1    0.00       0    94.5
 240    0:00   80.4    32   21.5    33     35.9   949.1    0.00       0    94.4
 240    0:10   79.7    34   20.1    30     28.8   949.2    0.00       1    94.3
 240    0:20   79.4    37   19.4     4     33.0   949.5    0.00       1    94.2
 240    0:30   78.9    38   24.0     1     38.4   949.6    0.00       0    94.0
 240    0:40   78.5    39   25.0   356     41.9   949.9    0.00       0    93.9

Return to Mesquite, Nevada graphs page.


Western Regional Climate Center,wrcc@dri.edu